Time;durP1;ratioP1;P1;durP2;ratioP2;P2;SDS_P1;SDS_P2;PMS_P1;PMS_P2;Temp;Humidity;BMP_temperature;BMP_pressure;BME280_temperature;BME280_humidity;BME280_pressure;Samples;Min_cycle;Max_cycle;Signal;HPM_P1;HPM_P2
2022/12/06 00:01:32;;;;;;;;;;;;;;;7.19;100.00;102052.09;2614381;36;20888;-54
2022/12/06 00:04:03;;;;;;;9.18;4.07;;;;;;;7.24;100.00;102050.03;2615008;36;19950;-51
2022/12/06 00:06:35;;;;;;;6.70;4.00;;;;;;;7.21;100.00;102044.84;2614871;36;20030;-54
2022/12/06 00:09:04;;;;;;;8.73;3.97;;;;;;;7.25;100.00;102037.53;2614640;36;20551;-50
2022/12/06 00:11:34;;;;;;;8.13;3.70;;;;;;;7.09;100.00;102048.22;2614299;36;20031;-57
2022/12/06 00:14:05;;;;;;;7.50;4.00;;;;;;;7.17;100.00;102041.47;2614665;36;21315;-50
2022/12/06 00:16:35;;;;;;;8.60;3.92;;;;;;;7.20;100.00;102051.16;2614298;31;20045;-54
2022/12/06 00:19:04;;;;;;;13.93;4.38;;;;;;;7.29;100.00;102050.66;2613363;36;20489;-56
2022/12/06 00:21:37;;;;;;;10.52;4.60;;;;;;;7.49;100.00;102057.56;2614454;31;20030;-56
2022/12/06 00:24:08;;;;;;;7.88;3.70;;;;;;;7.45;100.00;102056.00;2613290;36;20589;-55
2022/12/06 00:26:37;;;;;;;8.52;4.05;;;;;;;7.47;100.00;102058.59;2613122;36;20034;-50
2022/12/06 00:29:07;;;;;;;9.18;3.38;;;;;;;7.39;100.00;102053.69;2614269;36;20030;-53
2022/12/06 00:31:36;;;;;;;;;;;;;;;7.48;100.00;102057.63;2614411;36;20034;-52
2022/12/06 00:34:04;;;;;;;11.20;4.18;;;;;;;7.44;100.00;102053.41;2613975;36;19954;-51
2022/12/06 00:36:38;;;;;;;8.07;3.27;;;;;;;7.39;100.00;102055.47;2614298;36;20040;-55
2022/12/06 00:39:08;;;;;;;7.60;3.90;;;;;;;7.40;100.00;102057.22;2614924;36;20547;-56
2022/12/06 00:41:37;;;;;;;8.95;4.30;;;;;;;7.42;100.00;102055.31;2614904;36;20034;-53
2022/12/06 00:44:06;;;;;;;9.73;4.03;;;;;;;7.47;100.00;102054.09;2614904;36;20030;-54
2022/12/06 00:46:36;;;;;;;9.27;3.55;;;;;;;7.54;100.00;102065.34;2614145;36;20045;-56
2022/12/06 00:49:07;;;;;;;5.90;3.40;;;;;;;7.61;100.00;102049.78;2612890;36;20034;-54
2022/12/06 00:51:39;;;;;;;8.90;4.15;;;;;;;7.45;100.00;102055.13;2612996;36;20038;-50
2022/12/06 00:54:09;;;;;;;7.25;4.25;;;;;;;7.49;100.00;102052.22;2613454;31;20546;-55
2022/12/06 00:56:38;;;;;;;11.95;4.13;;;;;;;7.45;100.00;102044.41;2612028;36;20042;-53
2022/12/06 00:59:07;;;;;;;6.75;3.50;;;;;;;7.47;100.00;102045.22;2605132;31;20041;-52
2022/12/06 01:01:37;;;;;;;11.27;3.88;;;;;;;7.45;100.00;102049.78;2607111;36;20030;-52
2022/12/06 01:04:08;;;;;;;9.38;3.97;;;;;;;7.42;100.00;102049.94;2602186;36;20034;-52
2022/12/06 01:06:39;;;;;;;10.65;3.97;;;;;;;7.45;100.00;102047.09;2603891;36;20544;-56
2022/12/06 01:09:09;;;;;;;8.43;3.78;;;;;;;7.49;100.00;102051.34;2605661;36;20041;-53
2022/12/06 01:11:38;;;;;;;9.00;4.28;;;;;;;7.56;100.00;102052.72;2613419;36;20030;-55
2022/12/06 01:14:07;;;;;;;13.10;3.95;;;;;;;7.41;100.00;102040.22;2614186;36;20594;-52
2022/12/06 01:16:36;;;;;;;12.15;4.50;;;;;;;7.54;100.00;102041.25;2613571;36;20030;-52
2022/12/06 01:19:07;;;;;;;9.32;3.90;;;;;;;7.32;100.00;102050.47;2614322;36;20041;-55
2022/12/06 01:21:35;;;;;;;6.90;3.72;;;;;;;7.27;100.00;102044.50;2610718;36;20422;-53
2022/12/06 01:24:07;;;;;;;5.93;3.70;;;;;;;7.14;100.00;102043.44;2614444;36;20034;-51
2022/12/06 01:26:36;;;;;;;9.55;4.05;;;;;;;7.25;100.00;102034.84;2614797;36;20291;-51
2022/12/06 01:29:06;;;;;;;9.68;4.30;;;;;;;7.36;100.00;102046.69;2614071;36;20030;-50
2022/12/06 01:31:34;;;;;;;;;;;;;;;7.42;100.00;102044.59;2614714;36;20035;-52
2022/12/06 01:34:03;;;;;;;11.57;3.75;;;;;;;7.32;100.00;102041.59;2615260;36;19946;-52
2022/12/06 01:36:31;;;;;;;9.23;3.87;;;;;;;7.23;100.00;102044.75;2614742;36;20053;-52
2022/12/06 01:39:05;;;;;;;7.67;3.60;;;;;;;7.18;100.00;102042.34;2614734;36;20034;-50
2022/12/06 01:41:36;;;;;;;6.18;3.20;;;;;;;7.27;100.00;102041.81;2614979;36;20030;-54
2022/12/06 01:44:05;;;;;;;8.90;3.05;;;;;;;7.20;100.00;102040.47;2615177;31;20443;-52
2022/12/06 01:46:35;;;;;;;;;;;;;;;7.23;100.00;102037.59;2613847;36;20049;-50
2022/12/06 01:49:14;;;;;;;6.35;3.22;;;;;;;7.31;100.00;102043.38;2614226;36;20336;-53
2022/12/06 01:51:46;;;;;;;8.25;3.28;;;;;;;7.29;100.00;102047.97;2614260;36;20063;-54
2022/12/06 01:54:17;;;;;;;10.23;3.70;;;;;;;7.25;100.00;102041.06;2614886;31;20348;-52
2022/12/06 01:56:49;;;;;;;8.60;3.00;;;;;;;7.23;100.00;102026.91;2614280;36;20030;-55
2022/12/06 01:59:18;;;;;;;9.50;3.38;;;;;;;7.27;100.00;102032.94;2614385;31;20034;-53
2022/12/06 02:01:48;;;;;;;7.97;3.08;;;;;;;7.28;100.00;102035.53;2613820;36;20038;-54
2022/12/06 02:04:17;;;;;;;7.32;3.05;;;;;;;7.33;100.00;102030.78;2614172;36;20038;-49
2022/12/06 02:06:47;;;;;;;7.50;2.83;;;;;;;7.18;100.00;102028.94;2613906;36;20031;-54
2022/12/06 02:09:18;;;;;;;7.68;2.75;;;;;;;6.99;100.00;102027.31;2613379;36;20441;-54
2022/12/06 02:11:49;;;;;;;7.03;3.03;;;;;;;7.10;100.00;102032.06;2612673;36;20034;-53
2022/12/06 02:14:20;;;;;;;7.93;2.88;;;;;;;7.10;100.00;102029.38;2614620;36;20061;-53
2022/12/06 02:17:18;;;;;;;10.40;3.20;;;;;;;7.25;100.00;102022.31;2613940;54;20034;-53
2022/12/06 02:20:03;;;;;;;8.05;3.45;;;;;;;7.09;100.00;102022.28;2612572;36;20404;-57
2022/12/06 02:22:45;;;;;;;7.78;2.63;;;;;;;7.06;100.00;102017.09;2614594;36;20037;-55
2022/12/06 02:25:43;;;;;;;6.07;3.28;;;;;;;6.95;100.00;102009.69;2614753;36;20026;-53
2022/12/06 02:28:43;;;;;;;9.82;2.85;;;;;;;6.88;100.00;102019.00;2614088;36;20618;-55
2022/12/06 02:31:18;;;;;;;7.47;2.88;;;;;;;6.90;100.00;102017.06;2613996;36;20037;-54
2022/12/06 02:33:52;;;;;;;10.57;3.00;;;;;;;6.96;100.00;102019.44;2614778;36;20026;-58
2022/12/06 02:36:28;;;;;;;8.13;3.25;;;;;;;6.92;100.00;102015.19;2614288;36;20031;-50
2022/12/06 02:39:04;;;;;;;7.30;3.53;;;;;;;6.93;100.00;102021.41;2614921;31;20031;-52
2022/12/06 02:41:38;;;;;;;8.63;3.33;;;;;;;6.83;100.00;102021.03;2614714;36;20074;-52
2022/12/06 02:44:09;;;;;;;10.30;3.03;;;;;;;6.90;100.00;102016.22;2614792;36;20089;-54
2022/12/06 02:46:42;;;;;;;5.80;3.33;;;;;;;6.95;100.00;102015.03;2613494;36;20030;-53
2022/12/06 02:49:14;;;;;;;9.48;2.85;;;;;;;6.76;100.00;102014.31;2613447;36;20117;-48
2022/12/06 02:51:42;;;;;;;9.15;3.45;;;;;;;6.92;100.00;102020.56;2613647;36;20042;-52
2022/12/06 02:54:13;;;;;;;4.53;2.83;;;;;;;6.98;100.00;102019.34;2612967;31;20034;-54
2022/12/06 02:56:41;;;;;;;11.23;2.70;;;;;;;6.87;100.00;102013.72;2613428;31;20049;-51
2022/12/06 02:59:09;;;;;;;8.95;2.78;;;;;;;6.90;100.00;102018.91;2614491;36;20579;-56
2022/12/06 03:01:46;;;;;;;6.15;3.00;;;;;;;6.88;100.00;102021.66;2611759;36;20045;-54
2022/12/06 03:04:48;;;;;;;7.20;2.55;;;;;;;6.77;100.00;102016.91;2614458;36;20432;-49
2022/12/06 03:07:39;;;;;;;5.63;2.63;;;;;;;6.76;100.00;102014.31;2613806;36;20058;-52
2022/12/06 03:10:23;;;;;;;4.07;2.22;;;;;;;6.88;100.00;102019.00;2612838;36;20038;-56
2022/12/06 03:13:03;;;;;;;5.50;2.80;;;;;;;6.80;100.00;102011.38;2612834;36;20030;-49
2022/12/06 03:15:36;;;;;;;;;;;;;;;6.80;100.00;102016.72;2614555;36;20081;-48
2022/12/06 03:18:16;;;;;;;6.22;2.85;;;;;;;6.80;100.00;102021.19;2614461;36;20332;-54
2022/12/06 03:20:47;;;;;;;6.15;3.00;;;;;;;6.80;100.00;102022.09;2604897;36;20037;-54
2022/12/06 03:23:21;;;;;;;8.73;2.97;;;;;;;6.72;100.00;102018.09;2614200;36;20558;-49
2022/12/06 03:25:52;;;;;;;9.55;2.65;;;;;;;6.68;100.00;102021.88;2613660;36;20034;-49
2022/12/06 03:28:23;;;;;;;7.18;2.78;;;;;;;6.69;100.00;102023.63;2614235;36;20618;-53
2022/12/06 03:30:54;;;;;;;8.00;3.17;;;;;;;6.84;100.00;102028.13;2614064;36;20026;-53
2022/12/06 03:33:29;;;;;;;6.68;3.17;;;;;;;6.96;100.00;102018.56;2614652;36;20122;-53
2022/12/06 03:35:59;;;;;;;5.93;2.72;;;;;;;6.88;100.00;102007.44;2614940;31;20551;-52
2022/12/06 03:38:33;;;;;;;7.28;2.97;;;;;;;6.82;100.00;102009.47;2614084;36;20039;-50
2022/12/06 03:41:07;;;;;;;10.98;3.28;;;;;;;6.80;100.00;102006.03;2614513;36;20027;-50
2022/12/06 03:43:35;;;;;;;7.78;2.28;;;;;;;6.79;100.00;102004.28;2614604;36;20356;-54
2022/12/06 03:46:10;;;;;;;7.28;3.08;;;;;;;6.88;100.00;102002.94;2611250;36;20407;-50
2022/12/06 03:48:45;;;;;;;8.50;2.75;;;;;;;6.74;100.00;101995.63;2612538;36;20455;-56
2022/12/06 03:51:19;;;;;;;6.57;2.40;;;;;;;6.86;100.00;102004.84;2615444;36;20450;-53
2022/12/06 03:53:49;;;;;;;7.65;2.63;;;;;;;7.01;100.00;102003.13;2614446;36;20038;-52
2022/12/06 03:56:18;;;;;;;5.75;2.42;;;;;;;7.00;100.00;101993.34;2614169;36;20566;-52
2022/12/06 03:58:47;;;;;;;8.00;2.77;;;;;;;7.00;100.00;101999.56;2614652;36;20057;-50
2022/12/06 04:01:15;;;;;;;6.95;2.92;;;;;;;6.96;100.00;102000.72;2612461;36;20429;-50
2022/12/06 04:03:46;;;;;;;6.13;2.70;;;;;;;6.93;100.00;101992.81;2615331;36;20025;-53
2022/12/06 04:06:15;;;;;;;5.38;2.70;;;;;;;6.92;100.00;101988.44;2612680;36;20034;-54
2022/12/06 04:08:43;;;;;;;6.97;2.88;;;;;;;6.89;100.00;101988.63;2613656;31;20080;-51
2022/12/06 04:11:11;;;;;;;4.40;2.28;;;;;;;6.93;100.00;101986.63;2614234;36;20042;-49
2022/12/06 04:13:40;;;;;;;8.13;2.72;;;;;;;6.84;100.00;101985.31;2613957;36;20446;-55
2022/12/06 04:18:09;;;;;;;4.70;2.10;;;;;;;6.71;100.00;102003.84;2614875;31;20797;-52
2022/12/06 04:18:58;;;;;;;8.07;2.38;;;;;;;6.84;100.00;102006.72;2614233;36;20031;-56
2022/12/06 04:24:08;;;;;;;6.10;2.40;;;;;;;6.66;100.00;102006.75;2614124;36;20519;-50
2022/12/06 04:26:36;;;;;;;4.60;2.20;;;;;;;6.68;100.00;102001.31;2615059;36;20668;-50
2022/12/06 04:39:51;;;;;;;4.72;1.80;;;;;;;6.66;100.00;101997.88;2616208;36;20366;-52
2022/12/06 04:45:01;;;;;;;6.32;2.35;;;;;;;6.46;100.00;101996.25;2615359;36;20701;-53
2022/12/06 04:47:30;;;;;;;5.05;2.47;;;;;;;6.51;100.00;101999.56;2615121;36;20030;-50
2022/12/06 04:50:00;;;;;;;5.00;1.98;;;;;;;6.53;100.00;101999.50;2615837;36;20061;-53
2022/12/06 04:52:29;;;;;;;3.97;2.00;;;;;;;6.45;100.00;102000.75;2603167;36;20046;-49
2022/12/06 04:54:57;;;;;;;7.18;2.20;;;;;;;6.49;100.00;101998.78;2612545;36;20030;-48
2022/12/06 04:57:25;;;;;;;3.63;1.83;;;;;;;6.56;100.00;101989.47;2614180;31;20035;-50
2022/12/06 04:59:54;;;;;;;5.38;2.10;;;;;;;6.61;100.00;101989.22;2614996;36;20023;-48
2022/12/06 05:02:22;;;;;;;6.38;2.22;;;;;;;6.51;100.00;101988.88;2611510;36;20034;-51
2022/12/06 05:04:50;;;;;;;3.95;1.80;;;;;;;6.47;100.00;101980.13;2615087;36;20061;-51
2022/12/06 05:07:21;;;;;;;3.42;1.70;;;;;;;6.44;100.00;101988.31;2615226;36;20439;-49
2022/12/06 05:09:49;;;;;;;3.58;1.60;;;;;;;6.39;100.00;101978.81;2613906;36;20045;-53
2022/12/06 05:12:18;;;;;;;4.45;2.10;;;;;;;6.40;100.00;101988.56;2614926;31;20023;-50
2022/12/06 05:14:46;;;;;;;4.35;1.60;;;;;;;6.48;100.00;101989.91;2615331;36;20046;-48
2022/12/06 05:17:14;;;;;;;4.50;1.83;;;;;;;6.44;100.00;101990.16;2615146;31;20031;-49
2022/12/06 05:19:42;;;;;;;4.70;2.38;;;;;;;6.52;100.00;101984.38;2614557;36;20031;-49
2022/12/06 05:22:11;;;;;;;4.65;2.05;;;;;;;6.45;100.00;101976.69;2614547;36;20042;-50
2022/12/06 05:24:42;;;;;;;4.13;1.80;;;;;;;6.47;100.00;101982.81;2612908;36;20030;-49
2022/12/06 05:27:10;;;;;;;4.97;1.80;;;;;;;6.46;100.00;101980.22;2615685;36;20042;-51
2022/12/06 05:29:38;;;;;;;6.47;2.00;;;;;;;6.50;100.00;101989.81;2613718;36;20033;-49
2022/12/06 05:32:07;;;;;;;3.90;1.90;;;;;;;6.50;100.00;101981.78;2613592;36;20038;-50
2022/12/06 05:34:35;;;;;;;8.73;2.30;;;;;;;6.49;100.00;101980.03;2614503;36;20023;-48
2022/12/06 05:37:04;;;;;;;3.13;2.25;;;;;;;6.61;100.00;101990.09;2615821;31;20551;-50
2022/12/06 05:39:32;;;;;;;3.35;1.70;;;;;;;6.49;100.00;101985.41;2616039;36;20038;-51
2022/12/06 05:42:03;;;;;;;3.30;1.88;;;;;;;6.54;100.00;101987.84;2615954;36;20057;-52
2022/12/06 05:44:31;;;;;;;4.50;1.55;;;;;;;6.57;100.00;101987.69;2615285;36;20023;-51
2022/12/06 05:46:59;;;;;;;7.13;1.63;;;;;;;6.53;100.00;101989.66;2615734;36;20031;-51
2022/12/06 05:49:28;;;;;;;4.05;1.42;;;;;;;6.65;100.00;101980.97;2614258;36;20030;-50
2022/12/06 05:51:56;;;;;;;5.70;1.67;;;;;;;6.64;100.00;101989.06;2614894;36;20042;-49
2022/12/06 05:54:24;;;;;;;3.80;1.83;;;;;;;6.55;100.00;101981.53;2614563;36;20037;-51
2022/12/06 05:56:54;;;;;;;3.25;1.77;;;;;;;6.67;100.00;101991.59;2614592;36;20449;-52
2022/12/06 05:59:25;;;;;;;6.63;1.83;;;;;;;6.75;100.00;101985.81;2615721;36;20030;-51
2022/12/06 06:01:53;;;;;;;4.10;1.60;;;;;;;6.66;100.00;101990.72;2613258;36;20034;-53
2022/12/06 06:04:21;;;;;;;5.60;1.83;;;;;;;6.61;100.00;101995.47;2615324;36;20037;-51
2022/12/06 06:06:50;;;;;;;3.92;1.70;;;;;;;6.52;100.00;101990.56;2615983;36;20019;-52
2022/12/06 06:09:18;;;;;;;3.90;1.52;;;;;;;6.46;100.00;101985.56;2614565;36;20122;-51
2022/12/06 06:11:46;;;;;;;4.18;1.40;;;;;;;6.45;100.00;101986.53;2614714;36;20543;-54
2022/12/06 06:14:15;;;;;;;2.97;1.85;;;;;;;6.55;100.00;101987.78;2612648;36;20073;-50
2022/12/06 06:16:46;;;;;;;3.53;1.77;;;;;;;6.56;100.00;101985.94;2614626;36;20038;-49
2022/12/06 06:19:14;;;;;;;5.80;1.90;;;;;;;6.53;100.00;101981.63;2616732;36;20502;-47
2022/12/06 06:21:42;;;;;;;4.30;1.67;;;;;;;6.46;100.00;101981.09;2615720;36;20602;-50
2022/12/06 06:24:11;;;;;;;3.03;1.75;;;;;;;6.45;100.00;101986.53;2614059;36;20439;-50
2022/12/06 06:26:39;;;;;;;4.32;1.55;;;;;;;6.47;100.00;101989.97;2612499;36;20041;-49
2022/12/06 06:29:07;;;;;;;3.83;1.75;;;;;;;6.44;100.00;101982.13;2614725;36;20365;-49
2022/12/06 06:31:36;;;;;;;3.55;1.70;;;;;;;6.32;100.00;101981.81;2612528;36;20034;-49
2022/12/06 06:34:06;;;;;;;3.20;1.60;;;;;;;6.41;100.00;101982.28;2612342;31;20038;-51
2022/12/06 06:36:35;;;;;;;3.13;1.67;;;;;;;6.34;100.00;101983.56;2611647;36;20027;-47
2022/12/06 06:39:03;;;;;;;4.95;1.90;;;;;;;6.20;100.00;101985.13;2613023;36;20031;-48
2022/12/06 06:41:31;;;;;;;2.95;1.73;;;;;;;6.29;100.00;101976.63;2611680;36;20559;-50
2022/12/06 06:44:01;;;;;;;3.78;1.60;;;;;;;6.20;100.00;101984.25;2614757;31;20037;-52
2022/12/06 06:46:30;;;;;;;3.05;1.70;;;;;;;6.17;100.00;101981.75;2613151;36;20026;-48
2022/12/06 06:48:58;;;;;;;3.13;1.60;;;;;;;6.19;100.00;101977.19;2614950;36;20038;-49
2022/12/06 06:51:29;;;;;;;2.90;1.63;;;;;;;6.14;100.00;101977.44;2615151;36;20030;-48
2022/12/06 06:53:57;;;;;;;5.15;1.80;;;;;;;5.91;100.00;101973.25;2614060;36;20052;-48
2022/12/06 06:56:26;;;;;;;3.15;1.35;;;;;;;5.94;100.00;101973.94;2614276;36;20570;-48
2022/12/06 06:58:54;;;;;;;3.07;1.80;;;;;;;5.85;100.00;101977.09;2614722;31;20554;-48
2022/12/06 07:01:24;;;;;;;2.77;1.70;;;;;;;5.84;100.00;101972.69;2612650;36;20053;-52
2022/12/06 07:03:53;;;;;;;5.35;1.80;;;;;;;5.81;100.00;101972.84;2615716;31;20310;-56
2022/12/06 07:06:22;;;;;;;3.27;1.50;;;;;;;5.83;100.00;101979.00;2615544;36;20018;-48
2022/12/06 07:08:53;;;;;;;4.30;2.08;;;;;;;5.72;100.00;101978.66;2615100;31;20560;-48
2022/12/06 07:11:22;;;;;;;4.20;1.88;;;;;;;5.65;100.00;101987.91;2613646;36;20027;-48
2022/12/06 07:13:51;;;;;;;3.00;1.42;;;;;;;5.56;100.00;101987.41;2614033;36;20030;-48
2022/12/06 07:16:19;;;;;;;4.40;2.00;;;;;;;5.38;100.00;101991.00;2614634;36;20042;-47
2022/12/06 07:18:48;;;;;;;3.88;1.88;;;;;;;5.15;100.00;101984.94;2612620;31;20099;-48
2022/12/06 07:21:18;;;;;;;4.15;2.33;;;;;;;4.97;100.00;101992.03;2613187;36;20035;-50
2022/12/06 07:23:46;;;;;;;3.78;1.90;;;;;;;4.95;100.00;101993.03;2613083;36;20035;-49
2022/12/06 07:26:20;;;;;;;4.38;2.17;;;;;;;4.77;100.00;101992.97;2612640;36;20041;-48
2022/12/06 07:28:50;;;;;;;4.28;2.20;;;;;;;4.67;100.00;101989.00;2614462;36;20054;-50
2022/12/06 07:31:22;;;;;;;4.53;1.90;;;;;;;4.67;100.00;101989.84;2609454;36;20038;-53
2022/12/06 07:33:53;;;;;;;3.75;2.10;;;;;;;4.60;100.00;101991.06;2595383;31;20038;-48
2022/12/06 07:36:21;;;;;;;4.07;1.85;;;;;;;4.59;100.00;101985.81;2614882;31;20356;-48
2022/12/06 07:38:51;;;;;;;3.25;1.83;;;;;;;4.55;100.00;101991.28;2614689;31;20567;-53
2022/12/06 07:46:46;;;;;;;4.55;2.03;;;;;;;4.33;100.00;101987.84;2613623;36;20035;-51
2022/12/06 07:49:15;;;;;;;3.50;2.17;;;;;;;4.22;100.00;101993.63;2614997;36;20035;-50
2022/12/06 07:51:44;;;;;;;4.53;2.28;;;;;;;4.28;100.00;101992.50;2614805;36;20574;-49
2022/12/06 07:54:12;;;;;;;3.77;1.80;;;;;;;4.14;100.00;101991.31;2615040;36;20034;-48
2022/12/06 07:56:44;;;;;;;2.78;2.05;;;;;;;4.08;100.00;101996.03;2614425;36;20275;-52
2022/12/06 07:59:13;;;;;;;3.50;1.75;;;;;;;4.08;100.00;101991.59;2613386;36;20034;-51
2022/12/06 08:01:42;;;;;;;2.63;1.70;;;;;;;3.99;100.00;101986.63;2617086;31;20566;-53
2022/12/06 08:04:10;;;;;;;3.33;2.17;;;;;;;3.94;100.00;101994.81;2616343;36;20034;-53
2022/12/06 08:06:39;;;;;;;4.10;2.03;;;;;;;3.89;100.00;101994.16;2616738;36;20034;-53
2022/12/06 08:09:08;;;;;;;3.22;1.80;;;;;;;3.84;100.00;101994.38;2616011;36;20295;-53
2022/12/06 08:11:36;;;;;;;3.15;1.77;;;;;;;3.91;100.00;101994.09;2616211;36;20042;-49
2022/12/06 08:14:07;;;;;;;4.55;2.03;;;;;;;3.91;100.00;102004.75;2617221;31;20030;-53
2022/12/06 08:16:36;;;;;;;3.70;2.22;;;;;;;3.89;100.00;102001.28;2616064;36;20041;-52
2022/12/06 08:19:04;;;;;;;3.88;2.10;;;;;;;3.87;100.00;101998.69;2616935;36;20423;-52
2022/12/06 08:21:32;;;;;;;3.72;2.15;;;;;;;3.85;100.00;102004.06;2616339;36;20035;-48
2022/12/06 08:24:02;;;;;;;3.17;1.88;;;;;;;3.85;100.00;101998.75;2616088;36;20030;-50
2022/12/06 08:26:31;;;;;;;5.10;2.55;;;;;;;3.82;100.00;101990.88;2615971;36;20067;-53
2022/12/06 08:29:02;;;;;;;5.70;2.72;;;;;;;3.83;100.00;101987.28;2617151;31;20030;-52
2022/12/06 08:31:33;;;;;;;3.33;2.17;;;;;;;3.88;100.00;101997.75;2615768;36;20427;-50
2022/12/06 08:34:02;;;;;;;3.42;2.03;;;;;;;3.80;100.00;102002.56;2609061;36;20030;-53
2022/12/06 08:36:31;;;;;;;4.90;2.10;;;;;;;3.81;100.00;102005.16;2607031;36;20038;-55
2022/12/06 08:39:01;;;;;;;3.80;2.10;;;;;;;3.86;100.00;102003.16;2614742;36;20023;-52
2022/12/06 08:44:16;;;;;;;4.15;2.08;;;;;;;3.81;100.00;102004.25;2615198;36;20046;-47
2022/12/06 08:46:48;;;;;;;4.22;1.90;;;;;;;3.91;100.00;102005.59;2614432;36;20038;-48
2022/12/06 08:49:18;;;;;;;5.10;2.50;;;;;;;3.84;100.00;102006.78;2615911;36;20395;-52
2022/12/06 08:51:48;;;;;;;4.28;2.40;;;;;;;3.75;100.00;102007.19;2616206;36;20038;-49
2022/12/06 08:54:18;;;;;;;7.55;1.98;;;;;;;3.90;100.00;101997.69;2614356;36;20038;-49
2022/12/06 08:56:47;;;;;;;5.75;1.85;;;;;;;3.92;100.00;102002.03;2615224;36;20042;-48
2022/12/06 08:59:15;;;;;;;3.20;2.08;;;;;;;3.91;100.00;101999.44;2615638;36;20035;-51
2022/12/06 09:01:47;;;;;;;4.78;2.47;;;;;;;3.90;100.00;102000.34;2614809;36;20034;-50
2022/12/06 09:04:15;;;;;;;4.88;2.50;;;;;;;4.06;100.00;101996.09;2616193;31;20431;-48
2022/12/06 09:06:45;;;;;;;5.05;2.10;;;;;;;4.21;100.00;102003.44;2616274;36;20034;-48
2022/12/06 09:09:16;;;;;;;5.78;2.70;;;;;;;4.30;100.00;101999.50;2614739;36;20038;-48
2022/12/06 09:11:46;;;;;;;5.82;2.78;;;;;;;4.42;100.00;102006.09;2615697;36;20547;-50
2022/12/06 09:14:16;;;;;;;5.40;2.75;;;;;;;4.63;100.00;101998.94;2616122;36;20566;-48
2022/12/06 09:16:47;;;;;;;4.85;2.70;;;;;;;4.82;100.00;102001.63;2615343;36;20025;-49
2022/12/06 09:19:16;;;;;;;5.10;2.50;;;;;;;5.06;100.00;102002.28;2616438;36;20031;-48
2022/12/06 09:21:45;;;;;;;7.30;2.70;;;;;;;5.32;100.00;102002.00;2615888;36;20030;-51
2022/12/06 09:24:15;;;;;;;6.72;2.70;;;;;;;5.57;100.00;102007.84;2615943;36;20443;-49
2022/12/06 09:26:44;;;;;;;3.95;2.65;;;;;;;5.76;100.00;102006.94;2615529;36;20547;-49
2022/12/06 09:29:13;;;;;;;6.85;2.75;;;;;;;5.96;100.00;102004.13;2616363;36;20451;-49
2022/12/06 09:31:41;;;;;;;4.93;2.70;;;;;;;5.91;100.00;102003.50;2615364;36;20035;-50
2022/12/06 09:34:14;;;;;;;7.23;3.10;;;;;;;6.10;100.00;102000.78;2616373;31;20019;-48
2022/12/06 09:36:45;;;;;;;4.57;2.67;;;;;;;6.19;100.00;101998.59;2608871;31;20318;-48
2022/12/06 09:39:17;;;;;;;7.30;2.83;;;;;;;6.30;100.00;101994.41;2615731;36;20035;-51
2022/12/06 09:42:18;;;;;;;5.97;2.65;;;;;;;6.30;100.00;101996.19;2615692;36;20085;-49
2022/12/06 09:45:06;;;;;;;7.57;3.65;;;;;;;6.42;100.00;102002.72;2609018;36;20041;-48
2022/12/06 09:47:47;;;;;;;5.32;2.88;;;;;;;6.59;100.00;101999.16;2614460;36;20551;-48
2022/12/06 09:50:28;;;;;;;4.38;2.50;;;;;;;6.62;100.00;101990.97;2615572;36;20408;-52
2022/12/06 09:53:11;;;;;;;5.60;2.72;;;;;;;6.65;100.00;101997.03;2615577;36;20039;-48
2022/12/06 09:56:02;;;;;;;4.95;2.70;;;;;;;6.51;100.00;101994.22;2615559;36;20031;-50
2022/12/06 09:58:43;;;;;;;5.57;2.65;;;;;;;6.89;100.00;101993.06;2615353;36;20026;-48
2022/12/06 10:01:23;;;;;;;6.82;2.50;;;;;;;6.87;100.00;101987.81;2614759;36;20034;-52
2022/12/06 10:04:06;;;;;;;8.27;2.25;;;;;;;6.98;100.00;101987.25;2614654;36;20026;-50
2022/12/06 10:06:43;;;;;;;5.32;2.15;;;;;;;6.75;100.00;101985.81;2614593;36;20035;-51
2022/12/06 10:09:27;;;;;;;6.28;1.77;;;;;;;6.79;100.00;101984.72;2615037;36;20585;-51
2022/12/06 10:12:11;;;;;;;8.25;2.80;;;;;;;6.90;100.00;101982.28;2615595;36;20170;-48
2022/12/06 10:14:55;;;;;;;3.05;1.92;;;;;;;6.97;100.00;101986.34;2616139;36;20030;-48
2022/12/06 10:17:30;;;;;;;4.63;2.28;;;;;;;7.06;100.00;101973.41;2613992;36;20034;-48
2022/12/06 10:20:07;;;;;;;7.15;2.50;;;;;;;7.10;100.00;101980.34;2615346;36;20440;-49
2022/12/06 10:22:51;;;;;;;4.80;1.88;;;;;;;7.36;100.00;101977.03;2616881;31;20411;-48
2022/12/06 10:25:23;;;;;;;4.35;2.00;;;;;;;7.43;100.00;101971.31;2614914;36;20053;-53
2022/12/06 10:28:02;;;;;;;5.20;2.20;;;;;;;7.26;100.00;101970.47;2615635;36;20078;-48
2022/12/06 10:30:33;;;;;;;4.93;2.05;;;;;;;7.29;100.00;101972.97;2614559;36;20034;-51
2022/12/06 10:33:09;;;;;;;3.42;1.63;;;;;;;7.37;100.00;101968.03;2613815;36;20039;-49
2022/12/06 10:35:43;;;;;;;4.55;1.90;;;;;;;7.35;100.00;101959.25;2614671;36;20052;-53
2022/12/06 10:38:25;;;;;;;4.07;1.88;;;;;;;7.45;100.00;101964.94;2615158;36;20046;-48
2022/12/06 10:41:01;;;;;;;4.97;2.25;;;;;;;7.47;100.00;101957.66;2615237;36;20049;-50
2022/12/06 10:43:37;;;;;;;4.07;2.03;;;;;;;7.55;100.00;101970.59;2616023;36;20567;-51
2022/12/06 10:49:02;;;;;;;4.13;1.90;;;;;;;7.56;100.00;101961.63;2615930;36;20030;-56
2022/12/06 10:51:37;;;;;;;4.22;1.60;;;;;;;7.56;100.00;101953.59;2616152;36;20065;-54
2022/12/06 10:54:23;;;;;;;3.17;1.80;;;;;;;7.57;100.00;101958.00;2608696;31;20023;-50
2022/12/06 10:56:54;;;;;;;3.58;1.73;;;;;;;7.56;100.00;101961.63;2615670;36;20018;-53
2022/12/06 10:59:31;;;;;;;7.00;2.20;;;;;;;7.68;100.00;101952.84;2615758;36;20034;-54
2022/12/06 11:02:05;;;;;;;5.97;2.00;;;;;;;7.56;100.00;101956.25;2615396;36;20026;-52
2022/12/06 11:04:38;;;;;;;5.32;2.13;;;;;;;7.85;100.00;101951.88;2615877;36;20035;-51
2022/12/06 11:07:17;;;;;;;4.18;1.88;;;;;;;7.66;100.00;101956.59;2613854;36;20042;-53
2022/12/06 11:09:52;;;;;;;6.28;1.83;;;;;;;7.64;100.00;101956.69;2614463;31;20046;-54
2022/12/06 11:12:26;;;;;;;3.47;1.83;;;;;;;7.79;100.00;101954.03;2616688;31;20426;-50
2022/12/06 11:15:01;;;;;;;3.92;2.00;;;;;;;7.61;100.00;101961.34;2614830;36;20034;-52
2022/12/06 11:17:34;;;;;;;4.40;1.77;;;;;;;7.64;100.00;101959.38;2614421;36;20037;-54
2022/12/06 11:20:05;;;;;;;5.70;2.20;;;;;;;7.51;100.00;101955.69;2614359;36;20050;-53
2022/12/06 11:22:41;;;;;;;6.47;2.78;;;;;;;7.35;100.00;101943.16;2613201;36;20594;-48
2022/12/06 11:25:24;;;;;;;9.90;2.33;;;;;;;7.57;100.00;101936.56;2614755;36;20038;-53
2022/12/06 11:27:57;;;;;;;5.28;2.60;;;;;;;7.81;100.00;101933.38;2615510;36;20593;-52
2022/12/06 11:30:25;;;;;;;6.63;2.53;;;;;;;7.75;100.00;101928.41;2614891;36;20042;-52
2022/12/06 11:32:54;;;;;;;4.87;2.33;;;;;;;7.43;100.00;101928.47;2614736;36;20484;-49
2022/12/06 11:35:26;;;;;;;6.17;2.60;;;;;;;7.71;100.00;101925.91;2616210;36;20057;-50
2022/12/06 11:37:59;;;;;;;3.47;2.13;;;;;;;7.58;100.00;101922.19;2615689;36;20311;-53
2022/12/06 11:40:35;;;;;;;5.45;2.25;;;;;;;7.46;100.00;101922.94;2614748;36;20343;-54
2022/12/06 11:43:07;;;;;;;5.60;2.70;;;;;;;7.72;100.00;101929.44;2615605;36;20430;-54
2022/12/06 11:45:37;;;;;;;4.10;2.20;;;;;;;7.57;100.00;101924.97;2615227;36;20034;-52
2022/12/06 11:48:15;;;;;;;5.38;2.28;;;;;;;7.52;100.00;101917.22;2616114;36;20060;-51
2022/12/06 11:50:45;;;;;;;5.13;2.55;;;;;;;7.84;100.00;101914.44;2616080;36;20030;-46
2022/12/06 11:53:21;;;;;;;4.07;2.67;;;;;;;8.05;100.00;101915.81;2608489;31;20061;-48
2022/12/06 11:55:55;;;;;;;3.28;2.35;;;;;;;8.21;100.00;101909.50;2609194;36;20146;-49
2022/12/06 11:58:29;;;;;;;6.97;2.55;;;;;;;8.19;100.00;101916.81;2614895;36;20039;-54
2022/12/06 12:01:02;;;;;;;5.57;2.38;;;;;;;8.11;100.00;101919.06;2616477;36;20443;-52
2022/12/06 12:03:32;;;;;;;3.38;2.03;;;;;;;8.03;100.00;101912.34;2615873;36;20026;-50
2022/12/06 12:06:18;;;;;;;5.90;2.80;;;;;;;7.74;100.00;101905.22;2615319;36;20470;-53
2022/12/06 12:08:58;;;;;;;5.65;2.42;;;;;;;7.77;100.00;101915.75;2615446;36;20038;-53
2022/12/06 12:11:32;;;;;;;7.65;2.95;;;;;;;7.84;100.00;101907.25;2615990;36;20057;-56
2022/12/06 12:14:03;;;;;;;4.22;2.60;;;;;;;8.02;100.00;101910.66;2616069;36;20043;-50
2022/12/06 12:16:37;;;;;;;5.22;2.35;;;;;;;7.85;100.00;101897.41;2612675;36;20031;-50